Time;durP1;ratioP1;P1;durP2;ratioP2;P2;SDS_P1;SDS_P2;PMS_P1;PMS_P2;Temp;Humidity;BMP_temperature;BMP_pressure;BME280_temperature;BME280_humidity;BME280_pressure;Samples;Min_cycle;Max_cycle;Signal;HPM_P1;HPM_P2
2023/07/24 00:01:03;;;;;;;6.30;4.17;;;19.10;99.90;;;;;;5009623;28;20488;-76
2023/07/24 00:03:30;;;;;;;6.13;4.43;;;19.20;99.90;;;;;;5010054;28;20462;-75
2023/07/24 00:06:00;;;;;;;5.20;4.27;;;19.20;99.90;;;;;;5009924;28;20537;-75
2023/07/24 00:08:27;;;;;;;6.93;4.60;;;19.20;99.90;;;;;;5012774;28;20481;-75
2023/07/24 00:10:53;;;;;;;7.00;4.00;;;19.10;99.90;;;;;;5022843;28;21018;-75
2023/07/24 00:13:20;;;;;;;5.87;4.50;;;19.10;99.90;;;;;;5028269;28;20462;-74
2023/07/24 00:15:47;;;;;;;4.73;4.13;;;19.10;99.90;;;;;;5029240;28;20878;-75
2023/07/24 00:18:14;;;;;;;5.53;4.00;;;19.10;99.90;;;;;;5028993;28;20484;-76
2023/07/24 00:20:41;;;;;;;6.67;4.73;;;19.00;99.90;;;;;;5029554;28;20972;-74
2023/07/24 00:23:09;;;;;;;6.23;4.03;;;19.00;99.90;;;;;;5029156;28;20478;-74
2023/07/24 00:25:36;;;;;;;6.77;4.87;;;19.00;99.90;;;;;;5029233;28;20630;-75
2023/07/24 00:28:02;;;;;;;6.60;4.80;;;18.90;99.90;;;;;;5029411;28;20483;-74
2023/07/24 00:30:29;;;;;;;6.10;4.57;;;18.90;99.90;;;;;;5029030;28;20456;-76
2023/07/24 00:32:56;;;;;;;7.30;4.70;;;18.80;99.90;;;;;;5029483;28;20467;-77
2023/07/24 00:35:22;;;;;;;5.60;4.10;;;18.70;99.90;;;;;;5029015;28;20472;-76
2023/07/24 00:37:49;;;;;;;7.20;4.20;;;18.60;99.90;;;;;;5029054;28;20484;-76
2023/07/24 00:40:17;;;;;;;8.03;5.30;;;18.60;99.90;;;;;;5018337;28;20843;-76
2023/07/24 00:42:48;;;;;;;5.83;4.03;;;18.50;99.90;;;;;;5013220;28;20482;-77
2023/07/24 00:45:14;;;;;;;8.00;4.50;;;18.40;99.90;;;;;;5012592;28;20466;-76
2023/07/24 00:50:15;;;;;;;5.80;4.30;;;18.20;99.90;;;;;;5012282;28;20470;-95
2023/07/24 00:52:43;;;;;;;6.57;4.43;;;18.10;99.90;;;;;;5009523;28;20459;-95
2023/07/24 00:55:11;;;;;;;5.53;4.07;;;18.00;99.90;;;;;;5036443;22;20485;-91
2023/07/24 00:57:39;;;;;;;6.47;4.20;;;18.00;99.90;;;;;;5050918;28;20453;-92
2023/07/24 01:00:08;;;;;;;6.87;4.37;;;17.90;99.90;;;;;;5051325;28;20448;-93
2023/07/24 01:02:35;;;;;;;6.33;4.53;;;17.90;99.90;;;;;;5039335;28;20472;-92
2023/07/24 01:05:03;;;;;;;7.17;4.73;;;17.90;99.90;;;;;;5046725;28;20472;-92
2023/07/24 01:07:31;;;;;;;7.80;5.17;;;17.90;99.90;;;;;;5050208;28;20464;-92
2023/07/24 01:09:57;;;;;;;6.43;4.83;;;17.80;99.90;;;;;;5050997;28;20467;-92
2023/07/24 01:12:32;;;;;;;6.37;4.00;;;17.80;99.90;;;;;;5051009;28;20448;-91
2023/07/24 01:15:11;;;;;;;6.00;3.97;;;17.80;99.90;;;;;;5050797;28;20457;-92
2023/07/24 01:17:43;;;;;;;7.00;4.17;;;17.70;99.90;;;;;;5039468;28;20446;-92
2023/07/24 01:20:14;;;;;;;5.67;4.20;;;17.70;99.90;;;;;;5047385;28;20468;-93
2023/07/24 01:22:49;;;;;;;6.20;3.83;;;17.60;99.90;;;;;;5050736;28;20500;-92
2023/07/24 01:25:24;;;;;;;5.53;3.97;;;17.60;99.90;;;;;;5049807;28;20473;-93
2023/07/24 01:27:52;;;;;;;7.00;4.60;;;17.50;99.90;;;;;;5047340;28;20437;-91
2023/07/24 01:30:20;;;;;;;7.23;5.37;;;17.40;99.90;;;;;;5048470;28;20440;-91
2023/07/24 01:32:47;;;;;;;5.87;4.47;;;17.50;99.90;;;;;;5050739;28;20451;-92
2023/07/24 01:35:14;;;;;;;11.27;5.07;;;17.40;99.90;;;;;;5049713;28;20490;-92
2023/07/24 01:37:42;;;;;;;4.23;3.70;;;17.40;99.90;;;;;;5047045;28;20459;-92
2023/07/24 01:40:11;;;;;;;4.13;3.37;;;17.40;99.90;;;;;;5046904;28;20453;-92
2023/07/24 01:42:38;;;;;;;5.87;4.70;;;17.40;99.90;;;;;;5038817;28;20464;-91
2023/07/24 01:45:08;;;;;;;6.03;4.03;;;17.40;99.90;;;;;;5046451;28;20469;-93
2023/07/24 01:47:34;;;;;;;8.00;4.70;;;17.30;99.90;;;;;;5049813;28;20460;-91
2023/07/24 01:50:01;;;;;;;4.73;3.60;;;17.30;99.90;;;;;;5050220;28;20452;-92
2023/07/24 01:52:28;;;;;;;7.20;4.63;;;17.20;99.90;;;;;;5047405;28;20468;-93
2023/07/24 01:54:55;;;;;;;5.83;4.50;;;17.20;99.90;;;;;;5046072;28;20445;-92
2023/07/24 01:57:21;;;;;;;6.87;4.63;;;17.20;99.90;;;;;;5047279;28;20455;-92
2023/07/24 01:59:48;;;;;;;6.03;4.40;;;17.10;99.90;;;;;;5048660;28;20455;-92
2023/07/24 02:02:16;;;;;;;6.17;4.87;;;17.20;99.90;;;;;;5040063;28;20547;-92
2023/07/24 02:04:43;;;;;;;5.53;3.93;;;17.10;99.90;;;;;;5049692;28;20472;-92
2023/07/24 02:07:10;;;;;;;5.63;4.37;;;17.10;99.90;;;;;;5049294;28;20461;-93
2023/07/24 02:09:37;;;;;;;6.83;4.97;;;17.10;99.90;;;;;;5044984;28;20454;-92
2023/07/24 02:12:04;;;;;;;6.13;4.47;;;17.10;99.90;;;;;;5044587;28;20460;-92
2023/07/24 02:14:31;;;;;;;5.33;4.33;;;17.10;99.90;;;;;;5046878;28;20465;-93
2023/07/24 02:16:58;;;;;;;7.60;5.27;;;17.10;99.90;;;;;;5050471;28;20482;-91
2023/07/24 02:19:26;;;;;;;5.50;4.37;;;17.10;99.90;;;;;;5046447;28;20475;-94
2023/07/24 02:21:52;;;;;;;6.07;4.30;;;17.10;99.90;;;;;;5047888;28;20462;-91
2023/07/24 02:24:19;;;;;;;5.83;3.73;;;17.00;99.90;;;;;;5047367;28;20459;-91
2023/07/24 02:26:46;;;;;;;6.53;4.10;;;17.00;99.90;;;;;;5044237;28;20511;-92
2023/07/24 02:29:13;;;;;;;7.43;4.80;;;17.00;99.90;;;;;;5043836;28;20476;-92
2023/07/24 02:31:39;;;;;;;6.13;4.20;;;16.90;99.90;;;;;;5047603;28;20465;-92
2023/07/24 02:34:06;;;;;;;7.10;5.17;;;16.90;99.90;;;;;;5047875;28;20459;-91
2023/07/24 02:36:34;;;;;;;6.50;4.53;;;16.80;99.90;;;;;;5044456;28;20479;-92
2023/07/24 02:39:01;;;;;;;6.50;4.40;;;16.80;99.90;;;;;;5045513;28;20453;-92
2023/07/24 02:41:27;;;;;;;5.70;3.97;;;16.70;99.90;;;;;;5046759;28;20461;-92
2023/07/24 02:43:54;;;;;;;7.20;4.47;;;16.70;99.90;;;;;;5047812;28;20481;-91
2023/07/24 02:46:23;;;;;;;5.30;4.10;;;16.70;99.90;;;;;;5046561;28;20465;-92
2023/07/24 02:48:50;;;;;;;5.90;3.80;;;16.70;99.90;;;;;;5044500;28;20453;-92
2023/07/24 02:51:17;;;;;;;5.77;4.17;;;16.60;99.90;;;;;;5044806;28;20454;-91
2023/07/24 02:53:45;;;;;;;6.60;4.40;;;16.60;99.90;;;;;;5044104;28;20464;-91
2023/07/24 02:56:11;;;;;;;6.00;4.27;;;16.50;99.90;;;;;;5042104;28;20477;-93
2023/07/24 02:58:38;;;;;;;5.10;4.37;;;16.50;99.90;;;;;;5047295;28;20446;-92
2023/07/24 03:01:06;;;;;;;5.20;4.13;;;16.50;99.90;;;;;;5048600;28;20447;-93
2023/07/24 03:03:33;;;;;;;6.10;4.10;;;16.40;99.90;;;;;;5046694;28;20552;-92
2023/07/24 03:06:00;;;;;;;8.83;4.90;;;16.40;99.90;;;;;;5045034;28;20458;-93
2023/07/24 03:08:26;;;;;;;6.10;4.70;;;16.40;99.90;;;;;;5046265;28;20441;-92
2023/07/24 03:10:54;;;;;;;6.37;4.60;;;16.30;99.90;;;;;;5048473;28;20468;-93
2023/07/24 03:13:21;;;;;;;6.50;5.03;;;16.30;99.90;;;;;;5048225;28;20855;-92
2023/07/24 03:15:53;;;;;;;5.70;4.00;;;16.30;99.90;;;;;;5044150;28;20473;-92
2023/07/24 03:18:20;;;;;;;6.40;4.43;;;16.20;99.90;;;;;;5052361;28;20455;-92
2023/07/24 03:20:47;;;;;;;6.90;4.10;;;16.20;99.90;;;;;;5036226;28;20441;-93
2023/07/24 03:23:14;;;;;;;6.07;4.20;;;16.20;99.90;;;;;;5043518;28;20488;-91
2023/07/24 03:25:40;;;;;;;6.97;4.80;;;16.10;99.90;;;;;;5040726;28;20476;-91
2023/07/24 03:28:08;;;;;;;6.87;3.97;;;16.10;99.90;;;;;;5042615;28;20454;-91
2023/07/24 03:30:40;;;;;;;5.90;4.40;;;16.10;99.90;;;;;;5036682;28;20456;-91
2023/07/24 03:33:23;;;;;;;8.13;5.47;;;16.00;99.90;;;;;;5037395;28;20456;-92
2023/07/24 03:35:50;;;;;;;6.53;4.10;;;16.00;99.90;;;;;;5037486;28;20491;-91
2023/07/24 03:38:16;;;;;;;6.20;4.77;;;15.90;99.90;;;;;;5038907;28;20462;-90
2023/07/24 03:40:43;;;;;;;4.40;3.63;;;15.90;99.90;;;;;;5034527;28;21087;-91
2023/07/24 03:43:11;;;;;;;5.37;3.97;;;15.90;99.90;;;;;;5036517;28;20555;-91
2023/07/24 03:45:38;;;;;;;7.30;4.07;;;15.90;99.90;;;;;;5037721;28;20477;-90
2023/07/24 03:48:05;;;;;;;5.93;4.40;;;15.90;99.90;;;;;;5037744;28;20445;-90
2023/07/24 03:50:38;;;;;;;6.20;4.27;;;15.90;99.90;;;;;;5036684;28;20538;-91
2023/07/24 03:53:04;;;;;;;5.33;3.90;;;16.00;99.90;;;;;;5044329;22;20492;-70
2023/07/24 03:55:31;;;;;;;5.60;4.10;;;15.90;99.90;;;;;;5029207;28;20474;-69
2023/07/24 03:57:58;;;;;;;7.30;4.40;;;16.00;99.90;;;;;;5029704;28;20994;-69
2023/07/24 04:00:26;;;;;;;4.40;3.77;;;16.00;99.90;;;;;;5030000;28;20468;-70
2023/07/24 04:02:52;;;;;;;6.57;4.40;;;16.10;99.90;;;;;;5022115;28;20483;-70
2023/07/24 04:05:19;;;;;;;6.33;4.60;;;16.10;99.90;;;;;;5029918;28;20470;-69
2023/07/24 04:07:46;;;;;;;4.80;3.73;;;16.20;99.90;;;;;;5029420;28;20883;-69
2023/07/24 04:10:12;;;;;;;6.03;4.17;;;16.20;99.90;;;;;;5029306;28;20462;-69
2023/07/24 04:12:39;;;;;;;5.17;3.90;;;16.20;99.90;;;;;;5029872;28;20453;-70
2023/07/24 04:15:07;;;;;;;8.10;4.43;;;16.30;99.90;;;;;;5029664;28;20481;-71
2023/07/24 04:17:35;;;;;;;8.13;4.40;;;16.30;99.90;;;;;;5033217;28;20492;-71
2023/07/24 04:20:03;;;;;;;6.20;3.90;;;16.40;99.90;;;;;;5033761;28;20966;-72
2023/07/24 04:22:29;;;;;;;6.40;3.67;;;16.40;99.90;;;;;;5033438;28;20464;-70
2023/07/24 04:24:56;;;;;;;7.37;4.20;;;16.40;99.90;;;;;;5032976;28;20467;-70
2023/07/24 04:27:23;;;;;;;6.90;4.60;;;16.40;99.90;;;;;;5038364;28;20490;-70
2023/07/24 04:29:49;;;;;;;6.77;4.40;;;16.50;99.90;;;;;;5040641;28;20460;-70
2023/07/24 04:32:16;;;;;;;5.70;4.60;;;16.50;99.90;;;;;;5031112;28;20494;-70
2023/07/24 04:34:44;;;;;;;7.37;4.80;;;16.50;99.90;;;;;;5030055;28;20463;-70
2023/07/24 04:37:11;;;;;;;5.33;4.53;;;16.50;99.90;;;;;;5030311;28;20490;-70
2023/07/24 04:39:39;;;;;;;6.50;4.77;;;16.60;99.90;;;;;;5030924;28;20470;-70
2023/07/24 04:42:06;;;;;;;7.30;4.80;;;16.60;99.90;;;;;;5030940;28;20475;-70
2023/07/24 04:44:33;;;;;;;9.33;4.30;;;16.70;99.90;;;;;;5030662;28;20490;-70
2023/07/24 04:47:01;;;;;;;4.50;4.00;;;16.70;99.90;;;;;;5031734;28;20474;-70
2023/07/24 04:49:29;;;;;;;5.37;4.17;;;16.70;99.90;;;;;;5033461;28;20827;-70
2023/07/24 04:51:57;;;;;;;6.90;4.17;;;16.70;99.90;;;;;;5032893;28;20489;-70
2023/07/24 04:54:24;;;;;;;5.13;3.97;;;16.80;99.90;;;;;;5032839;28;20533;-70
2023/07/24 04:56:51;;;;;;;6.43;5.10;;;16.80;99.90;;;;;;5032179;28;20477;-71
2023/07/24 04:59:18;;;;;;;4.50;3.80;;;16.80;99.90;;;;;;5032866;28;20475;-70
2023/07/24 05:01:44;;;;;;;6.50;4.30;;;16.80;99.90;;;;;;5033980;28;20968;-70
2023/07/24 05:04:11;;;;;;;6.03;4.70;;;16.80;99.90;;;;;;5041053;28;20506;-70
2023/07/24 05:06:38;;;;;;;5.07;4.13;;;16.90;99.90;;;;;;5041586;28;20463;-70
2023/07/24 05:09:06;;;;;;;5.03;4.20;;;16.90;99.90;;;;;;5041099;28;20487;-70
2023/07/24 05:11:33;;;;;;;5.43;3.93;;;17.00;99.90;;;;;;5040990;28;20486;-70
2023/07/24 05:13:59;;;;;;;6.77;4.50;;;17.00;99.90;;;;;;5042577;28;20459;-70
2023/07/24 05:16:26;;;;;;;6.90;5.03;;;17.10;99.90;;;;;;5041086;28;20472;-70
2023/07/24 05:18:53;;;;;;;6.53;4.40;;;17.10;99.90;;;;;;5040113;28;20484;-70
2023/07/24 05:21:19;;;;;;;6.03;4.60;;;17.20;99.90;;;;;;5035623;28;21170;-70
2023/07/24 05:23:46;;;;;;;6.13;4.60;;;17.20;99.90;;;;;;5030619;28;20488;-70
2023/07/24 05:26:14;;;;;;;6.83;4.40;;;17.20;99.90;;;;;;5031995;28;20464;-70
2023/07/24 05:28:41;;;;;;;9.80;6.00;;;17.30;99.90;;;;;;5030962;28;20475;-70
2023/07/24 05:31:08;;;;;;;5.93;4.10;;;17.40;99.90;;;;;;5032263;28;20804;-70
2023/07/24 05:33:34;;;;;;;5.97;4.20;;;17.40;99.90;;;;;;5032080;28;20464;-70
2023/07/24 05:36:02;;;;;;;5.83;4.47;;;17.40;99.90;;;;;;5034185;28;20464;-70
2023/07/24 05:38:29;;;;;;;6.50;4.53;;;17.50;99.90;;;;;;5040800;28;20856;-70
2023/07/24 05:40:56;;;;;;;6.33;4.57;;;17.50;99.90;;;;;;5034422;28;20936;-70
2023/07/24 05:43:25;;;;;;;7.17;4.83;;;17.50;99.90;;;;;;5042250;28;20511;-70
2023/07/24 05:45:52;;;;;;;7.37;5.10;;;17.60;99.90;;;;;;5032133;28;20896;-71
2023/07/24 05:48:19;;;;;;;6.13;4.60;;;17.60;99.90;;;;;;5031505;28;20507;-70
2023/07/24 05:50:45;;;;;;;5.53;3.90;;;17.70;99.90;;;;;;5031275;28;20465;-70
2023/07/24 05:53:12;;;;;;;7.57;4.60;;;17.70;99.90;;;;;;5031844;28;20491;-70
2023/07/24 05:55:39;;;;;;;6.60;4.60;;;17.80;99.90;;;;;;5031101;28;20460;-71
2023/07/24 05:58:06;;;;;;;6.27;5.00;;;17.80;99.90;;;;;;5031507;28;20484;-69
2023/07/24 06:00:34;;;;;;;5.20;4.20;;;17.80;99.90;;;;;;5031780;28;20508;-70
2023/07/24 06:03:00;;;;;;;7.47;4.93;;;17.80;99.90;;;;;;5031182;28;20491;-70
2023/07/24 06:05:27;;;;;;;7.43;4.77;;;17.90;99.90;;;;;;5031093;28;20464;-70
2023/07/24 06:07:54;;;;;;;7.33;4.97;;;17.90;99.90;;;;;;5030700;28;20508;-70
2023/07/24 06:10:20;;;;;;;5.87;4.80;;;18.00;99.90;;;;;;5031432;28;20468;-70
2023/07/24 06:12:47;;;;;;;7.20;4.70;;;18.00;99.90;;;;;;5031166;28;20836;-70
2023/07/24 06:15:14;;;;;;;7.33;4.60;;;18.10;99.90;;;;;;5031336;28;20539;-69
2023/07/24 06:17:42;;;;;;;5.63;4.27;;;18.10;99.90;;;;;;5029590;28;20476;-71
2023/07/24 06:20:09;;;;;;;10.90;4.87;;;18.20;99.90;;;;;;5031302;28;20461;-69
2023/07/24 06:22:36;;;;;;;6.60;4.30;;;18.20;99.90;;;;;;5031286;28;20468;-70
2023/07/24 06:25:03;;;;;;;6.40;4.20;;;18.20;99.90;;;;;;5030490;28;20544;-71
2023/07/24 06:27:29;;;;;;;7.20;4.80;;;18.30;99.90;;;;;;5030956;28;20480;-71
2023/07/24 06:29:56;;;;;;;7.00;4.30;;;18.30;99.90;;;;;;5030743;28;20467;-71
2023/07/24 06:32:23;;;;;;;8.27;4.83;;;18.30;99.90;;;;;;5031056;28;20826;-71
2023/07/24 06:34:51;;;;;;;6.33;4.90;;;18.40;99.90;;;;;;5030745;28;20484;-71
2023/07/24 06:37:18;;;;;;;6.33;4.20;;;18.40;99.90;;;;;;5030391;28;20481;-70
2023/07/24 06:39:44;;;;;;;6.73;4.93;;;18.40;99.90;;;;;;5030502;28;20462;-70
2023/07/24 06:42:11;;;;;;;6.80;4.70;;;18.40;99.90;;;;;;5030752;28;20505;-71
2023/07/24 06:44:38;;;;;;;6.83;4.90;;;18.50;99.90;;;;;;5030879;28;20490;-71
2023/07/24 06:47:05;;;;;;;7.60;5.00;;;18.60;99.90;;;;;;5030443;28;20493;-72
2023/07/24 06:49:31;;;;;;;5.50;4.30;;;18.60;99.90;;;;;;5030986;28;20468;-72
2023/07/24 06:51:59;;;;;;;8.07;5.27;;;18.70;99.90;;;;;;5030588;28;20844;-72
2023/07/24 06:54:26;;;;;;;7.33;5.70;;;18.80;99.90;;;;;;5031014;28;20457;-72
2023/07/24 06:56:53;;;;;;;7.90;4.90;;;18.80;99.90;;;;;;5087911;22;20485;-93
2023/07/24 06:59:20;;;;;;;7.00;5.37;;;18.90;99.90;;;;;;5050057;28;20529;-93
2023/07/24 07:01:47;;;;;;;6.07;4.67;;;19.00;99.90;;;;;;5044538;28;20480;-91
2023/07/24 07:04:13;;;;;;;5.27;4.73;;;19.10;99.90;;;;;;5045732;28;20477;-93
2023/07/24 07:06:40;;;;;;;6.87;5.00;;;19.10;99.90;;;;;;5045337;28;20489;-92
2023/07/24 07:09:08;;;;;;;6.20;5.27;;;19.20;99.90;;;;;;5053422;28;20437;-92
2023/07/24 07:11:36;;;;;;;7.40;4.80;;;19.20;99.90;;;;;;5048173;28;20505;-91
2023/07/24 07:14:08;;;;;;;6.47;4.50;;;19.30;99.90;;;;;;5046829;28;20456;-93
2023/07/24 07:16:35;;;;;;;8.70;5.33;;;19.30;99.90;;;;;;5058935;22;20489;-73
2023/07/24 07:19:02;;;;;;;8.23;5.80;;;19.30;99.90;;;;;;5032269;28;20489;-73
2023/07/24 07:21:28;;;;;;;7.10;5.33;;;19.40;99.90;;;;;;5036132;28;20941;-73
2023/07/24 07:23:55;;;;;;;5.53;4.40;;;19.30;99.90;;;;;;5031501;28;20491;-73
2023/07/24 07:26:24;;;;;;;5.97;4.53;;;19.40;99.90;;;;;;5033698;28;20469;-74
2023/07/24 07:28:50;;;;;;;8.10;5.40;;;19.40;99.90;;;;;;5030701;28;20495;-73
2023/07/24 07:31:17;;;;;;;7.27;5.07;;;19.50;99.90;;;;;;5023264;28;20948;-73
2023/07/24 07:33:45;;;;;;;6.53;4.87;;;19.60;99.90;;;;;;5022044;28;20827;-74
2023/07/24 07:36:12;;;;;;;7.63;5.40;;;19.50;99.90;;;;;;5022102;28;20461;-73
2023/07/24 07:38:40;;;;;;;8.00;5.20;;;19.60;99.90;;;;;;5029675;28;20568;-73
2023/07/24 07:41:07;;;;;;;8.83;5.40;;;19.60;99.90;;;;;;5030305;28;20607;-72
2023/07/24 07:43:37;;;;;;;7.13;5.30;;;19.60;99.90;;;;;;5030896;28;21071;-73
2023/07/24 07:46:05;;;;;;;8.90;5.50;;;19.70;99.90;;;;;;5030437;28;20456;-72
2023/07/24 07:48:32;;;;;;;5.50;4.73;;;19.80;99.90;;;;;;5029702;28;20482;-72
2023/07/24 07:50:59;;;;;;;7.23;5.00;;;19.80;99.90;;;;;;5031552;28;20469;-73
2023/07/24 07:53:25;;;;;;;9.13;4.83;;;19.90;99.90;;;;;;5034263;28;20457;-73
2023/07/24 07:55:59;;;;;;;8.13;5.13;;;20.00;99.90;;;;;;5033656;28;20469;-73
2023/07/24 07:58:26;;;;;;;5.87;4.33;;;20.00;99.90;;;;;;5033527;28;20485;-73
2023/07/24 08:00:54;;;;;;;8.70;4.83;;;20.00;99.90;;;;;;5034563;28;20512;-73
2023/07/24 08:03:21;;;;;;;7.37;4.73;;;20.00;99.90;;;;;;5033001;28;20459;-72
2023/07/24 08:05:47;;;;;;;8.00;5.23;;;20.00;99.90;;;;;;5034532;28;20933;-73
2023/07/24 08:08:15;;;;;;;5.43;4.53;;;20.00;99.90;;;;;;5013976;28;20491;-73
2023/07/24 08:10:41;;;;;;;6.80;4.33;;;19.90;99.90;;;;;;5014844;28;20839;-73
2023/07/24 08:13:08;;;;;;;7.30;4.70;;;19.90;99.90;;;;;;5013328;28;20474;-72
2023/07/24 08:15:36;;;;;;;6.47;4.67;;;19.90;99.90;;;;;;5027535;28;20492;-73
2023/07/24 08:18:05;;;;;;;6.00;4.70;;;19.90;99.90;;;;;;5033211;28;20484;-72
2023/07/24 08:20:32;;;;;;;8.40;4.97;;;19.80;99.90;;;;;;5033146;28;20460;-72
2023/07/24 08:22:58;;;;;;;5.83;5.00;;;19.80;99.90;;;;;;5033266;28;20460;-72
2023/07/24 08:25:25;;;;;;;6.23;4.53;;;19.70;99.90;;;;;;5033045;28;20514;-72
2023/07/24 08:27:52;;;;;;;8.03;5.20;;;19.60;99.90;;;;;;5033177;28;20488;-72
2023/07/24 08:30:18;;;;;;;7.90;4.87;;;19.60;99.90;;;;;;5033717;28;20489;-72
2023/07/24 08:32:45;;;;;;;6.97;4.77;;;19.50;99.90;;;;;;5024393;28;20466;-72
2023/07/24 08:35:13;;;;;;;6.60;5.00;;;19.40;99.90;;;;;;5032799;28;20975;-72
2023/07/24 08:37:44;;;;;;;5.80;4.20;;;19.40;99.90;;;;;;5025614;28;20918;-72
2023/07/24 08:40:12;;;;;;;9.10;5.27;;;19.30;99.90;;;;;;5014443;28;20494;-72
2023/07/24 08:42:40;;;;;;;7.37;4.27;;;19.30;99.90;;;;;;5013271;28;20458;-72
2023/07/24 08:45:12;;;;;;;7.10;4.40;;;19.20;99.90;;;;;;5031380;28;20485;-72
2023/07/24 08:47:41;;;;;;;6.90;4.23;;;19.10;99.90;;;;;;5032177;28;20517;-72
2023/07/24 08:50:11;;;;;;;6.03;4.57;;;19.10;99.90;;;;;;5032285;28;20456;-72
2023/07/24 08:52:39;;;;;;;4.93;4.17;;;19.10;99.90;;;;;;5031985;28;20466;-72
2023/07/24 08:55:07;;;;;;;6.53;4.27;;;19.10;99.90;;;;;;5032214;28;20460;-72
2023/07/24 08:57:33;;;;;;;8.30;5.00;;;19.10;99.90;;;;;;5031667;28;20731;-72
2023/07/24 09:00:04;;;;;;;5.90;4.23;;;19.20;99.90;;;;;;5032304;28;20472;-72
2023/07/24 09:02:31;;;;;;;6.50;4.60;;;19.20;99.90;;;;;;5032215;28;20457;-72
2023/07/24 09:04:58;;;;;;;6.03;5.07;;;19.30;99.90;;;;;;5023315;28;20492;-72
2023/07/24 09:07:25;;;;;;;4.87;4.00;;;19.30;99.90;;;;;;5012289;28;20516;-73
2023/07/24 09:09:53;;;;;;;5.73;4.60;;;19.30;99.90;;;;;;5012425;28;20473;-73
2023/07/24 09:12:20;;;;;;;7.77;4.97;;;19.30;99.90;;;;;;5021054;28;20496;-73
2023/07/24 09:14:46;;;;;;;7.83;4.27;;;19.20;99.90;;;;;;5019657;28;20456;-72
2023/07/24 09:19:41;;;;;;;6.80;4.50;;;19.30;99.90;;;;;;5016513;28;20513;-72
2023/07/24 09:22:12;;;;;;;6.33;4.20;;;19.40;99.90;;;;;;5012337;28;20837;-72
2023/07/24 09:24:39;;;;;;;5.13;4.30;;;19.40;99.90;;;;;;5011526;28;20910;-72
2023/07/24 09:27:09;;;;;;;5.50;4.30;;;19.50;99.90;;;;;;5011842;28;20896;-72
2023/07/24 09:29:36;;;;;;;5.93;4.20;;;19.40;99.90;;;;;;5011911;28;20466;-72
2023/07/24 09:32:03;;;;;;;4.50;3.60;;;19.50;99.90;;;;;;5012361;28;20484;-71
2023/07/24 09:34:30;;;;;;;5.13;3.90;;;19.60;99.90;;;;;;5012096;28;20482;-72
2023/07/24 09:36:57;;;;;;;4.83;3.63;;;19.60;99.90;;;;;;5011551;28;20946;-73
2023/07/24 09:39:24;;;;;;;4.40;3.60;;;19.50;99.90;;;;;;5015843;28;20466;-72
2023/07/24 09:41:52;;;;;;;5.60;3.90;;;19.50;99.90;;;;;;5032506;28;20468;-72
2023/07/24 09:44:20;;;;;;;3.77;3.20;;;19.50;99.90;;;;;;5030678;28;20483;-72
2023/07/24 09:46:47;;;;;;;4.53;3.30;;;19.50;99.90;;;;;;5017655;28;20491;-72
2023/07/24 09:49:15;;;;;;;5.03;3.17;;;19.50;99.90;;;;;;5022484;28;20469;-72
2023/07/24 09:51:46;;;;;;;5.23;3.30;;;19.50;99.90;;;;;;5021051;28;20952;-72
2023/07/24 09:54:19;;;;;;;4.00;3.53;;;19.50;99.90;;;;;;5020084;28;20469;-72
2023/07/24 09:56:48;;;;;;;3.53;3.20;;;19.60;99.90;;;;;;5027228;28;20458;-72
2023/07/24 09:59:14;;;;;;;5.27;4.10;;;19.50;99.90;;;;;;5033719;28;20458;-71
2023/07/24 10:01:43;;;;;;;4.83;4.13;;;19.60;99.90;;;;;;5032306;28;20472;-72
2023/07/24 10:04:11;;;;;;;7.17;4.00;;;19.60;99.90;;;;;;5032281;28;20528;-72
2023/07/24 10:06:38;;;;;;;5.20;3.73;;;19.60;99.90;;;;;;5013827;28;20462;-72
2023/07/24 10:09:05;;;;;;;5.50;4.50;;;19.60;99.90;;;;;;5010467;28;20486;-72
2023/07/24 10:11:31;;;;;;;3.60;3.10;;;19.60;99.90;;;;;;5011574;28;20458;-72
2023/07/24 10:13:59;;;;;;;5.20;4.20;;;19.60;99.90;;;;;;5012616;28;20461;-72
2023/07/24 10:16:25;;;;;;;4.90;4.27;;;19.60;99.90;;;;;;5030828;28;20456;-72
2023/07/24 10:18:53;;;;;;;6.47;3.97;;;19.60;99.90;;;;;;5031321;28;20488;-72
2023/07/24 10:21:28;;;;;;;5.17;3.77;;;19.50;99.90;;;;;;5030605;28;21005;-72
2023/07/24 10:23:54;;;;;;;6.13;3.93;;;19.50;99.90;;;;;;5031059;28;20460;-72
2023/07/24 10:26:26;;;;;;;5.43;3.87;;;19.50;99.90;;;;;;5027912;28;20491;-72
2023/07/24 10:28:53;;;;;;;5.63;3.90;;;19.50;99.90;;;;;;5031398;28;20508;-72
2023/07/24 10:31:22;;;;;;;5.53;4.13;;;19.50;99.90;;;;;;5030373;28;20457;-71
2023/07/24 10:33:49;;;;;;;4.07;3.67;;;19.40;99.90;;;;;;5030530;28;20471;-72
2023/07/24 10:36:22;;;;;;;5.50;3.80;;;19.40;99.90;;;;;;5029987;28;20587;-71
2023/07/24 10:38:54;;;;;;;6.43;3.50;;;19.40;99.90;;;;;;5031098;28;20485;-72
2023/07/24 10:41:21;;;;;;;7.80;4.10;;;19.40;99.90;;;;;;5030990;28;20465;-72
2023/07/24 10:43:49;;;;;;;5.23;4.00;;;19.40;99.90;;;;;;5031199;28;20460;-72
2023/07/24 10:46:18;;;;;;;8.80;4.20;;;19.30;99.90;;;;;;5020107;28;20485;-71
2023/07/24 10:48:46;;;;;;;5.50;3.73;;;19.30;99.90;;;;;;5010772;28;20855;-71
2023/07/24 10:51:14;;;;;;;6.57;4.43;;;19.20;99.90;;;;;;5011365;28;20469;-71
2023/07/24 10:53:46;;;;;;;5.40;3.80;;;19.20;99.90;;;;;;5016895;28;20468;-72
2023/07/24 10:56:13;;;;;;;5.77;3.90;;;19.10;99.90;;;;;;5029397;28;20480;-72
2023/07/24 10:58:40;;;;;;;6.10;4.30;;;19.00;99.90;;;;;;5011831;28;21007;-72
2023/07/24 11:01:08;;;;;;;7.83;4.87;;;18.90;99.90;;;;;;5010706;28;20957;-72
2023/07/24 11:03:37;;;;;;;5.57;3.90;;;18.90;99.90;;;;;;5010239;28;20957;-71
2023/07/24 11:06:04;;;;;;;7.10;4.53;;;18.80;99.90;;;;;;5018425;28;20831;-71
2023/07/24 11:08:32;;;;;;;4.60;3.60;;;18.70;99.90;;;;;;5029435;28;20488;-71
2023/07/24 11:11:02;;;;;;;5.03;3.70;;;18.70;99.90;;;;;;5023285;28;20461;-71
2023/07/24 11:13:29;;;;;;;7.13;4.67;;;18.70;99.90;;;;;;5010311;28;20461;-72
2023/07/24 11:15:56;;;;;;;5.33;3.90;;;18.60;99.90;;;;;;5010039;28;20464;-71
2023/07/24 11:18:26;;;;;;;5.00;4.00;;;18.60;99.90;;;;;;5009869;28;20574;-72
2023/07/24 11:20:54;;;;;;;6.30;4.40;;;18.60;99.90;;;;;;5010148;28;20461;-71
2023/07/24 11:23:21;;;;;;;6.53;4.57;;;18.60;99.90;;;;;;5009857;28;20844;-73
2023/07/24 11:25:50;;;;;;;6.80;3.97;;;18.60;99.90;;;;;;5008427;28;20481;-71
2023/07/24 11:28:18;;;;;;;6.23;4.17;;;18.50;99.90;;;;;;5010335;28;20496;-71
2023/07/24 11:30:45;;;;;;;5.43;4.20;;;18.50;99.90;;;;;;5010404;28;20473;-73
2023/07/24 11:33:15;;;;;;;9.90;4.10;;;18.50;99.90;;;;;;5009217;28;20465;-74
2023/07/24 11:35:42;;;;;;;6.10;4.73;;;18.60;99.90;;;;;;5009614;28;20461;-74
2023/07/24 11:38:10;;;;;;;4.70;3.93;;;18.60;99.90;;;;;;5009746;28;20473;-73
2023/07/24 11:40:39;;;;;;;4.40;4.00;;;18.70;99.90;;;;;;5009367;28;20559;-73
2023/07/24 11:43:06;;;;;;;5.60;4.33;;;19.00;99.90;;;;;;5016304;28;20474;-72
2023/07/24 11:45:42;;;;;;;6.80;5.10;;;19.40;99.90;;;;;;5015376;28;20914;-72
2023/07/24 11:48:11;;;;;;;5.33;3.93;;;19.60;99.90;;;;;;5009700;28;20481;-73
2023/07/24 11:50:43;;;;;;;5.67;4.47;;;19.80;99.90;;;;;;5009885;28;20493;-72
2023/07/24 11:53:20;;;;;;;7.03;4.43;;;19.90;99.90;;;;;;5009605;28;20497;-73
2023/07/24 11:55:48;;;;;;;6.03;4.60;;;19.80;99.90;;;;;;5016849;28;20466;-73
2023/07/24 11:58:16;;;;;;;6.00;3.87;;;19.70;99.90;;;;;;5013029;28;20863;-73
2023/07/24 12:00:45;;;;;;;5.60;4.00;;;19.60;99.90;;;;;;5029734;28;20464;-73
2023/07/24 12:03:12;;;;;;;7.80;4.50;;;19.50;99.90;;;;;;5029136;28;20462;-73
2023/07/24 12:05:40;;;;;;;5.50;4.07;;;19.40;99.90;;;;;;5028687;28;20480;-73
2023/07/24 12:08:07;;;;;;;5.40;3.83;;;19.40;99.90;;;;;;5029751;28;20539;-73
2023/07/24 12:10:37;;;;;;;7.40;4.50;;;19.50;99.90;;;;;;5028423;28;20477;-73
2023/07/24 12:13:04;;;;;;;5.00;3.93;;;19.60;99.90;;;;;;5012879;28;20471;-72
2023/07/24 12:15:32;;;;;;;5.20;3.97;;;19.60;99.90;;;;;;5008547;28;20630;-72
2023/07/24 12:18:01;;;;;;;5.60;4.40;;;19.90;99.90;;;;;;5022905;28;20606;-73
2023/07/24 12:20:28;;;;;;;5.27;3.97;;;20.00;99.90;;;;;;5028181;28;20470;-73
2023/07/24 12:22:55;;;;;;;4.40;3.77;;;20.10;99.90;;;;;;5014533;28;20541;-73
2023/07/24 12:25:22;;;;;;;5.50;4.30;;;20.20;99.90;;;;;;5014073;28;20843;-73
2023/07/24 12:27:49;;;;;;;5.17;3.77;;;20.30;99.90;;;;;;5009016;28;20808;-73
2023/07/24 12:30:15;;;;;;;4.87;3.87;;;20.40;99.90;;;;;;5009761;28;20986;-73
2023/07/24 12:32:42;;;;;;;5.73;4.20;;;20.40;99.90;;;;;;5009809;28;20814;-73
2023/07/24 12:35:11;;;;;;;4.70;3.30;;;20.50;99.90;;;;;;5009655;28;20455;-73
2023/07/24 12:37:39;;;;;;;5.70;3.93;;;20.50;99.90;;;;;;5011444;28;20486;-72
2023/07/24 12:40:07;;;;;;;4.87;4.00;;;20.40;99.90;;;;;;5013615;28;20466;-73
2023/07/24 12:42:33;;;;;;;6.20;3.40;;;20.40;99.90;;;;;;5012915;28;20470;-72
2023/07/24 12:45:02;;;;;;;5.87;4.10;;;20.30;99.90;;;;;;5027471;28;20470;-73
2023/07/24 12:47:29;;;;;;;3.53;3.10;;;20.30;99.90;;;;;;5032440;28;20487;-72
2023/07/24 12:49:57;;;;;;;4.53;4.10;;;20.40;99.90;;;;;;5028169;28;20470;-73
2023/07/24 12:52:25;;;;;;;3.90;3.30;;;20.60;99.90;;;;;;5013108;28;20559;-72
2023/07/24 12:54:52;;;;;;;4.07;3.53;;;20.80;99.90;;;;;;5026017;28;20460;-73